Time;durP1;ratioP1;P1;durP2;ratioP2;P2;SDS_P1;SDS_P2;PMS_P1;PMS_P2;Temp;Humidity;BMP_temperature;BMP_pressure;BME280_temperature;BME280_humidity;BME280_pressure;Samples;Min_cycle;Max_cycle;Signal;HPM_P1;HPM_P2
2023/06/08 00:01:04;;;;;;;5.30;4.70;;;15.80;99.90;;;;;;5071463;28;21281;-51
2023/06/08 00:03:31;;;;;;;6.53;4.73;;;15.90;99.90;;;;;;5073236;28;20451;-47
2023/06/08 00:05:59;;;;;;;5.63;4.33;;;15.90;99.90;;;;;;5073296;28;20473;-48
2023/06/08 00:08:26;;;;;;;5.63;4.83;;;15.90;99.90;;;;;;5073053;28;20550;-47
2023/06/08 00:10:53;;;;;;;5.50;4.50;;;15.90;99.90;;;;;;5073038;28;20529;-48
2023/06/08 00:13:19;;;;;;;7.47;4.90;;;15.90;99.90;;;;;;5072568;28;20990;-47
2023/06/08 00:15:46;;;;;;;6.50;4.70;;;15.90;99.90;;;;;;5073349;28;20530;-49
2023/06/08 00:18:15;;;;;;;6.60;5.03;;;15.80;99.90;;;;;;5071898;28;20493;-48
2023/06/08 00:20:42;;;;;;;5.23;4.30;;;15.80;99.90;;;;;;5073396;28;20451;-47
2023/06/08 00:23:09;;;;;;;6.70;4.80;;;15.80;99.90;;;;;;5072979;28;20446;-48
2023/06/08 00:25:36;;;;;;;6.00;4.70;;;15.70;99.90;;;;;;5072489;28;20528;-49
2023/06/08 00:28:03;;;;;;;6.10;4.67;;;15.80;99.90;;;;;;5072466;28;20551;-49
2023/06/08 00:30:30;;;;;;;6.20;5.07;;;15.70;99.90;;;;;;5073046;28;20472;-49
2023/06/08 00:32:57;;;;;;;5.07;4.50;;;15.70;99.90;;;;;;5072603;28;20473;-47
2023/06/08 00:35:25;;;;;;;5.90;4.70;;;15.70;99.90;;;;;;5072475;28;20475;-48
2023/06/08 00:37:52;;;;;;;5.60;4.63;;;15.80;99.90;;;;;;5071056;28;20467;-48
2023/06/08 00:40:20;;;;;;;6.67;5.10;;;15.80;99.90;;;;;;5072731;28;20445;-50
2023/06/08 00:42:47;;;;;;;5.57;4.50;;;15.80;99.90;;;;;;5072446;28;20457;-47
2023/06/08 00:45:13;;;;;;;7.17;4.90;;;15.70;99.90;;;;;;5071942;28;20529;-50
2023/06/08 00:47:41;;;;;;;5.87;5.13;;;15.70;99.90;;;;;;5071980;28;20506;-47
2023/06/08 00:50:09;;;;;;;6.77;5.17;;;15.70;99.90;;;;;;5072669;28;20501;-47
2023/06/08 00:52:40;;;;;;;6.00;5.00;;;15.60;99.90;;;;;;5072361;28;20568;-52
2023/06/08 00:55:08;;;;;;;5.33;3.77;;;15.70;99.90;;;;;;5070117;28;20516;-48
2023/06/08 00:57:37;;;;;;;5.80;4.80;;;15.60;99.90;;;;;;5070057;28;20477;-48
2023/06/08 01:00:05;;;;;;;6.53;4.13;;;15.60;99.90;;;;;;5072724;28;20451;-47
2023/06/08 01:02:32;;;;;;;5.40;4.30;;;15.60;99.90;;;;;;5070074;28;20445;-51
2023/06/08 01:05:01;;;;;;;4.60;4.07;;;15.50;99.90;;;;;;5071732;28;20520;-47
2023/06/08 01:07:40;;;;;;;7.43;4.60;;;15.50;99.90;;;;;;5071754;28;20476;-47
2023/06/08 01:10:14;;;;;;;5.80;5.10;;;15.50;99.90;;;;;;5072145;28;20454;-48
2023/06/08 01:12:47;;;;;;;5.40;4.63;;;15.40;99.90;;;;;;5071929;28;20576;-49
2023/06/08 01:15:20;;;;;;;6.03;4.67;;;15.40;99.90;;;;;;5071587;28;21025;-47
2023/06/08 01:17:52;;;;;;;6.07;4.93;;;15.30;99.90;;;;;;5071524;28;20468;-48
2023/06/08 01:20:32;;;;;;;5.67;4.23;;;15.40;99.90;;;;;;5071877;28;21037;-50
2023/06/08 01:23:20;;;;;;;6.63;5.17;;;15.40;99.90;;;;;;5071803;28;20468;-47
2023/06/08 01:25:52;;;;;;;5.80;4.97;;;15.40;99.90;;;;;;5071339;28;20840;-48
2023/06/08 01:28:20;;;;;;;9.70;5.47;;;15.30;99.90;;;;;;5069903;28;20463;-48
2023/06/08 01:30:49;;;;;;;6.20;5.23;;;15.30;99.90;;;;;;5069557;28;20934;-47
2023/06/08 01:33:18;;;;;;;6.93;5.20;;;15.30;99.90;;;;;;5069706;28;20809;-57
2023/06/08 01:35:52;;;;;;;6.03;4.70;;;15.30;99.90;;;;;;5070068;28;20477;-50
2023/06/08 01:38:29;;;;;;;7.37;4.50;;;15.30;99.90;;;;;;5068119;28;20487;-49
2023/06/08 01:41:01;;;;;;;5.80;4.50;;;15.20;99.90;;;;;;5070057;28;20946;-50
2023/06/08 01:43:30;;;;;;;5.13;3.80;;;15.20;99.90;;;;;;5071369;28;20605;-47
2023/06/08 01:46:01;;;;;;;5.60;4.93;;;15.30;99.90;;;;;;5071497;28;20538;-51
2023/06/08 01:48:31;;;;;;;5.57;4.40;;;15.30;99.90;;;;;;5070939;28;20457;-49
2023/06/08 01:50:59;;;;;;;5.80;4.67;;;15.20;99.90;;;;;;5070877;28;20473;-47
2023/06/08 01:53:26;;;;;;;6.97;5.20;;;15.20;99.90;;;;;;5070877;28;20668;-47
2023/06/08 01:55:53;;;;;;;6.93;5.30;;;15.20;99.90;;;;;;5070099;28;20525;-47
2023/06/08 01:58:22;;;;;;;6.43;4.60;;;15.20;99.90;;;;;;5068942;28;20547;-47
2023/06/08 02:00:49;;;;;;;7.10;4.70;;;15.30;99.90;;;;;;5071136;28;20506;-50
2023/06/08 02:03:15;;;;;;;5.50;4.30;;;15.30;99.90;;;;;;5069239;28;20525;-49
2023/06/08 02:05:42;;;;;;;6.27;4.63;;;15.30;99.90;;;;;;5071187;28;20449;-48
2023/06/08 02:08:09;;;;;;;5.47;4.63;;;15.20;99.90;;;;;;5070791;28;20520;-52
2023/06/08 02:10:36;;;;;;;6.47;4.97;;;15.10;99.90;;;;;;5071043;28;20469;-48
2023/06/08 02:13:03;;;;;;;6.93;5.20;;;15.10;99.90;;;;;;5070857;28;20514;-47
2023/06/08 02:15:31;;;;;;;7.87;5.20;;;15.10;99.90;;;;;;5070344;28;20995;-49
2023/06/08 02:17:59;;;;;;;5.87;4.10;;;15.10;99.90;;;;;;5070386;28;20544;-51
2023/06/08 02:20:26;;;;;;;6.77;5.20;;;15.10;99.90;;;;;;5071068;28;20454;-47
2023/06/08 02:22:53;;;;;;;6.63;4.50;;;15.10;99.90;;;;;;5070889;28;20869;-47
2023/06/08 02:25:20;;;;;;;6.57;4.80;;;15.00;99.90;;;;;;5070338;28;20638;-47
2023/06/08 02:27:48;;;;;;;5.70;4.73;;;15.00;99.90;;;;;;5070393;28;20975;-47
2023/06/08 02:30:16;;;;;;;6.20;5.60;;;15.00;99.90;;;;;;5070809;28;20455;-47
2023/06/08 02:32:45;;;;;;;6.20;5.00;;;15.00;99.90;;;;;;5070418;28;20508;-50
2023/06/08 02:35:12;;;;;;;6.27;5.17;;;15.00;99.90;;;;;;5070488;28;20478;-47
2023/06/08 02:37:39;;;;;;;6.77;4.80;;;15.00;99.90;;;;;;5068500;28;20505;-47
2023/06/08 02:40:08;;;;;;;6.30;4.37;;;15.00;99.90;;;;;;5070987;28;20510;-47
2023/06/08 02:42:35;;;;;;;6.70;4.83;;;15.00;99.90;;;;;;5074832;28;20828;-47
2023/06/08 02:45:02;;;;;;;7.80;4.90;;;15.00;99.90;;;;;;5074379;28;20442;-47
2023/06/08 02:47:30;;;;;;;6.80;4.90;;;15.10;99.90;;;;;;5074242;28;20469;-49
2023/06/08 02:49:58;;;;;;;6.20;4.70;;;15.10;99.90;;;;;;5074835;28;20933;-47
2023/06/08 02:52:25;;;;;;;6.60;4.57;;;15.10;99.90;;;;;;5074407;28;20529;-52
2023/06/08 02:54:52;;;;;;;8.07;5.60;;;15.10;99.90;;;;;;5072357;28;20439;-47
2023/06/08 02:57:20;;;;;;;5.53;4.40;;;15.00;99.90;;;;;;5072250;28;20584;-48
2023/06/08 02:59:47;;;;;;;6.30;4.67;;;15.00;99.90;;;;;;5074938;28;20453;-47
2023/06/08 03:02:14;;;;;;;5.97;5.13;;;14.90;99.90;;;;;;5074128;28;20976;-50
2023/06/08 03:04:43;;;;;;;6.10;5.10;;;14.80;99.90;;;;;;5074002;28;20455;-47
2023/06/08 03:07:15;;;;;;;6.97;5.10;;;14.80;99.90;;;;;;5073713;28;20834;-52
2023/06/08 03:09:42;;;;;;;7.97;5.17;;;14.90;99.90;;;;;;5074177;28;20446;-47
2023/06/08 03:12:12;;;;;;;6.10;4.87;;;14.90;99.90;;;;;;5074313;28;20591;-49
2023/06/08 03:14:40;;;;;;;8.40;4.90;;;14.80;99.90;;;;;;5073980;28;20500;-50
2023/06/08 03:17:07;;;;;;;5.83;4.57;;;14.80;99.90;;;;;;5073764;28;20451;-50
2023/06/08 03:19:35;;;;;;;6.77;5.57;;;14.80;99.90;;;;;;5074329;28;20525;-47
2023/06/08 03:22:06;;;;;;;6.17;4.70;;;14.80;99.90;;;;;;5073995;28;20854;-47
2023/06/08 03:24:35;;;;;;;6.00;5.20;;;14.70;99.90;;;;;;5073882;28;20953;-51
2023/06/08 03:27:02;;;;;;;7.20;5.23;;;14.70;99.90;;;;;;5073715;28;20483;-47
2023/06/08 03:29:30;;;;;;;8.53;5.57;;;14.70;99.90;;;;;;5073695;28;20861;-52
2023/06/08 03:31:57;;;;;;;6.30;4.77;;;14.60;99.90;;;;;;5073831;28;20846;-47
2023/06/08 03:34:26;;;;;;;6.93;5.60;;;14.70;99.90;;;;;;5073497;28;20483;-49
2023/06/08 03:36:53;;;;;;;6.00;5.10;;;14.60;99.90;;;;;;5073676;28;20445;-47
2023/06/08 03:39:20;;;;;;;6.23;5.60;;;14.60;99.90;;;;;;5073533;28;20544;-52
2023/06/08 03:41:48;;;;;;;5.03;4.40;;;14.60;99.90;;;;;;5073592;28;20503;-47
2023/06/08 03:44:15;;;;;;;6.37;5.30;;;14.60;99.90;;;;;;5073367;28;21017;-48
2023/06/08 03:46:43;;;;;;;6.10;5.43;;;14.60;99.90;;;;;;5073341;28;20497;-48
2023/06/08 03:49:10;;;;;;;5.77;5.10;;;14.70;99.90;;;;;;5073472;28;20474;-47
2023/06/08 03:51:37;;;;;;;6.47;4.70;;;14.70;99.90;;;;;;5073252;28;20864;-48
2023/06/08 03:54:04;;;;;;;6.40;5.30;;;14.70;99.90;;;;;;5071202;28;20472;-48
2023/06/08 03:56:31;;;;;;;7.10;5.37;;;14.60;99.90;;;;;;5073347;28;21008;-48
2023/06/08 03:58:59;;;;;;;6.47;5.07;;;14.60;99.90;;;;;;5071680;28;20570;-47
2023/06/08 04:01:27;;;;;;;5.27;4.73;;;14.60;99.90;;;;;;5073254;28;20546;-47
2023/06/08 04:03:54;;;;;;;4.97;4.37;;;14.60;99.90;;;;;;5073322;28;20441;-48
2023/06/08 04:06:23;;;;;;;7.57;4.70;;;14.70;99.90;;;;;;5073348;28;20450;-47
2023/06/08 04:08:50;;;;;;;4.93;4.33;;;14.70;99.90;;;;;;5073037;28;20465;-48
2023/06/08 04:11:17;;;;;;;6.87;4.33;;;14.70;99.90;;;;;;5073123;28;20480;-52
2023/06/08 04:13:44;;;;;;;6.40;4.90;;;14.70;99.90;;;;;;5073031;28;20534;-47
2023/06/08 04:16:14;;;;;;;5.53;4.40;;;14.70;99.90;;;;;;5073225;28;20522;-47
2023/06/08 04:18:41;;;;;;;7.40;5.50;;;14.60;99.90;;;;;;5072570;28;21008;-47
2023/06/08 04:21:08;;;;;;;5.57;4.90;;;14.50;99.90;;;;;;5073049;28;20521;-49
2023/06/08 04:23:36;;;;;;;8.57;5.93;;;14.60;99.90;;;;;;5072897;28;20473;-47
2023/06/08 04:26:03;;;;;;;6.33;5.50;;;14.50;99.90;;;;;;5072859;28;20448;-47
2023/06/08 04:28:30;;;;;;;7.53;4.50;;;14.60;99.90;;;;;;5072025;28;21036;-53
2023/06/08 04:30:59;;;;;;;5.53;4.70;;;14.70;99.90;;;;;;5071616;28;20946;-48
2023/06/08 04:33:28;;;;;;;7.40;5.90;;;14.70;99.90;;;;;;5071186;28;20480;-52
2023/06/08 04:35:56;;;;;;;7.63;5.90;;;14.70;99.90;;;;;;5071835;28;20953;-48
2023/06/08 04:38:23;;;;;;;7.30;5.73;;;14.80;99.90;;;;;;5069177;28;20488;-47
2023/06/08 04:40:52;;;;;;;6.77;4.70;;;14.90;99.90;;;;;;5071303;28;20904;-48
2023/06/08 04:43:20;;;;;;;6.33;4.83;;;14.90;99.90;;;;;;5070675;28;20448;-50
2023/06/08 04:45:51;;;;;;;6.17;5.57;;;14.80;99.90;;;;;;5072567;28;20462;-48
2023/06/08 04:48:19;;;;;;;6.87;5.53;;;14.70;99.90;;;;;;5072536;28;20468;-47
2023/06/08 04:50:50;;;;;;;5.80;4.93;;;14.70;99.90;;;;;;5072334;28;20948;-47
2023/06/08 04:53:17;;;;;;;5.50;4.90;;;14.70;99.90;;;;;;5072314;28;20510;-47
2023/06/08 04:55:45;;;;;;;8.13;4.67;;;14.70;99.90;;;;;;5070250;28;20474;-49
2023/06/08 04:58:13;;;;;;;6.40;4.70;;;14.70;99.90;;;;;;5070193;28;20464;-47
2023/06/08 05:00:40;;;;;;;7.37;4.67;;;14.70;99.90;;;;;;5072054;28;20476;-48
2023/06/08 05:03:07;;;;;;;6.10;5.50;;;14.80;99.90;;;;;;5071962;28;20884;-48
2023/06/08 05:05:34;;;;;;;6.40;5.30;;;14.80;99.90;;;;;;5071700;28;20441;-47
2023/06/08 05:08:03;;;;;;;6.00;5.00;;;14.80;99.90;;;;;;5071834;28;20977;-48
2023/06/08 05:10:30;;;;;;;5.57;5.00;;;14.80;99.90;;;;;;5072546;28;20471;-47
2023/06/08 05:12:56;;;;;;;7.10;5.07;;;14.90;99.90;;;;;;5071882;28;20537;-48
2023/06/08 05:15:24;;;;;;;6.63;5.23;;;14.90;99.90;;;;;;5071645;28;20446;-48
2023/06/08 05:17:51;;;;;;;6.00;5.17;;;14.80;99.90;;;;;;5071366;28;20490;-49
2023/06/08 05:20:19;;;;;;;6.47;5.40;;;14.80;99.90;;;;;;5072208;28;20449;-50
2023/06/08 05:22:46;;;;;;;6.00;4.93;;;14.70;99.90;;;;;;5071734;28;20441;-47
2023/06/08 05:25:14;;;;;;;6.37;4.63;;;14.70;99.90;;;;;;5071125;28;20485;-48
2023/06/08 05:27:41;;;;;;;7.17;5.90;;;14.70;99.90;;;;;;5071580;28;20495;-48
2023/06/08 05:30:09;;;;;;;6.03;5.33;;;14.50;99.90;;;;;;5071886;28;20441;-50
2023/06/08 05:32:36;;;;;;;7.70;6.20;;;14.60;99.90;;;;;;5071166;28;20476;-49
2023/06/08 05:35:03;;;;;;;6.73;5.40;;;14.60;99.90;;;;;;5071185;28;20494;-52
2023/06/08 05:37:30;;;;;;;6.30;5.20;;;14.70;99.90;;;;;;5069357;28;20465;-48
2023/06/08 05:39:57;;;;;;;7.00;5.13;;;14.70;99.90;;;;;;5071863;28;20525;-47
2023/06/08 05:42:25;;;;;;;7.00;5.47;;;14.70;99.90;;;;;;5065170;28;20526;-47
2023/06/08 05:44:52;;;;;;;6.70;4.43;;;14.80;99.90;;;;;;5059727;28;21025;-47
2023/06/08 05:47:19;;;;;;;5.40;4.77;;;14.90;99.90;;;;;;5059298;28;20495;-47
2023/06/08 05:49:46;;;;;;;6.37;5.13;;;15.00;99.90;;;;;;5060937;28;20794;-47
2023/06/08 05:52:13;;;;;;;7.40;5.30;;;15.10;99.90;;;;;;5062006;28;20519;-47
2023/06/08 05:54:40;;;;;;;6.10;4.80;;;15.20;99.90;;;;;;5059519;28;20499;-49
2023/06/08 05:57:07;;;;;;;7.87;5.70;;;15.20;99.90;;;;;;5059673;28;20502;-48
2023/06/08 05:59:35;;;;;;;6.03;5.43;;;15.30;99.90;;;;;;5060501;28;20472;-51
2023/06/08 06:02:02;;;;;;;6.80;4.90;;;15.30;99.90;;;;;;5058314;28;20527;-50
2023/06/08 06:04:29;;;;;;;6.93;5.33;;;15.30;99.90;;;;;;5061166;28;20462;-47
2023/06/08 06:06:56;;;;;;;6.07;5.07;;;15.40;99.90;;;;;;5060277;28;20447;-48
2023/06/08 06:09:23;;;;;;;7.50;5.67;;;15.40;99.90;;;;;;5060083;28;20471;-47
2023/06/08 06:11:50;;;;;;;7.30;5.60;;;15.40;99.90;;;;;;5062313;28;20495;-48
2023/06/08 06:14:17;;;;;;;6.60;4.83;;;15.50;99.90;;;;;;5061700;28;20572;-52
2023/06/08 06:16:45;;;;;;;7.40;5.47;;;15.60;99.90;;;;;;5058716;28;20532;-47
2023/06/08 06:19:12;;;;;;;6.07;4.90;;;15.50;99.90;;;;;;5061382;28;20499;-48
2023/06/08 06:21:39;;;;;;;7.93;5.50;;;15.60;99.90;;;;;;5060421;28;20472;-47
2023/06/08 06:24:07;;;;;;;7.73;5.27;;;15.60;99.90;;;;;;5062722;28;20499;-48
2023/06/08 06:26:33;;;;;;;8.43;5.77;;;15.70;99.90;;;;;;5067640;28;20473;-51
2023/06/08 06:29:00;;;;;;;8.07;6.10;;;15.80;99.90;;;;;;5070190;28;20487;-48
2023/06/08 06:31:27;;;;;;;7.87;6.20;;;15.90;99.90;;;;;;5070176;28;20966;-47
2023/06/08 06:33:55;;;;;;;7.50;6.30;;;15.90;99.90;;;;;;5070099;28;20580;-48
2023/06/08 06:36:23;;;;;;;8.03;6.07;;;15.90;99.90;;;;;;5070404;28;20477;-47
2023/06/08 06:38:50;;;;;;;6.73;6.03;;;15.90;99.90;;;;;;5070088;28;20466;-52
2023/06/08 06:41:17;;;;;;;8.60;6.27;;;16.00;99.90;;;;;;5070443;28;20859;-49
2023/06/08 06:43:45;;;;;;;7.87;5.70;;;;;;;;;;5069915;28;20529;-51
2023/06/08 06:46:12;;;;;;;8.97;6.53;;;16.10;99.90;;;;;;5070014;28;20499;-50
2023/06/08 06:48:39;;;;;;;7.60;5.70;;;16.20;99.90;;;;;;5069686;28;20459;-48
2023/06/08 06:51:07;;;;;;;6.10;4.90;;;16.20;99.90;;;;;;5070117;28;20935;-47
2023/06/08 06:53:34;;;;;;;7.20;5.10;;;16.30;99.90;;;;;;5067896;28;20565;-49
2023/06/08 06:56:01;;;;;;;6.33;5.40;;;16.40;99.90;;;;;;5068216;28;20450;-49
2023/06/08 06:58:28;;;;;;;7.00;5.97;;;16.50;99.90;;;;;;5068069;28;20533;-48
2023/06/08 07:00:55;;;;;;;9.33;5.57;;;16.60;99.90;;;;;;5070547;28;20523;-52
2023/06/08 07:03:26;;;;;;;6.50;5.10;;;16.60;99.90;;;;;;5069624;28;20435;-48
2023/06/08 07:05:53;;;;;;;6.20;4.97;;;16.70;99.90;;;;;;5067380;28;20539;-52
2023/06/08 07:08:21;;;;;;;7.47;4.80;;;16.70;99.90;;;;;;5069873;28;20545;-48
2023/06/08 07:10:48;;;;;;;5.90;5.07;;;16.70;99.90;;;;;;5070079;28;20513;-47
2023/06/08 07:13:15;;;;;;;6.50;4.90;;;16.80;99.90;;;;;;5069625;28;20558;-47
2023/06/08 07:15:42;;;;;;;6.90;6.13;;;16.90;99.90;;;;;;5069898;28;20534;-48
2023/06/08 07:18:09;;;;;;;6.63;5.93;;;17.00;99.90;;;;;;5069698;28;21007;-47
2023/06/08 07:20:36;;;;;;;8.80;6.23;;;17.00;99.90;;;;;;5070520;28;20447;-52
2023/06/08 07:23:03;;;;;;;7.33;4.70;;;17.10;99.90;;;;;;5070142;28;20930;-48
2023/06/08 07:25:31;;;;;;;6.83;5.70;;;17.20;99.90;;;;;;5066755;28;20445;-48
2023/06/08 07:27:58;;;;;;;9.30;6.37;;;17.30;99.90;;;;;;5061948;28;20546;-48
2023/06/08 07:30:26;;;;;;;5.87;4.90;;;;;;;;;;5059207;28;20999;-47
2023/06/08 07:32:53;;;;;;;5.10;4.60;;;17.50;99.90;;;;;;5054204;28;20456;-54
2023/06/08 07:35:20;;;;;;;7.33;5.37;;;17.50;99.90;;;;;;5053562;28;20986;-48
2023/06/08 07:37:47;;;;;;;7.53;6.00;;;17.50;99.90;;;;;;5053433;28;20523;-53
2023/06/08 07:40:17;;;;;;;6.87;5.27;;;17.50;99.90;;;;;;5053872;28;20449;-48
2023/06/08 07:42:46;;;;;;;7.13;5.13;;;17.60;99.90;;;;;;5053724;28;20448;-48
2023/06/08 07:45:13;;;;;;;5.93;5.33;;;17.70;99.90;;;;;;5053187;28;20540;-47
2023/06/08 07:47:41;;;;;;;6.50;5.20;;;17.70;99.90;;;;;;5053483;28;20529;-47
2023/06/08 07:50:09;;;;;;;8.30;6.13;;;17.80;99.90;;;;;;5061721;28;20488;-49
2023/06/08 07:52:36;;;;;;;7.40;5.50;;;17.90;99.90;;;;;;5073481;28;20585;-47
2023/06/08 07:55:05;;;;;;;7.50;5.33;;;17.90;99.90;;;;;;5067819;28;20678;-48
2023/06/08 07:57:32;;;;;;;6.77;4.83;;;17.90;99.90;;;;;;5067601;28;20982;-52
2023/06/08 08:00:00;;;;;;;5.80;5.20;;;;;;;;;;5070316;28;20448;-48
2023/06/08 08:02:27;;;;;;;5.63;5.03;;;18.10;99.90;;;;;;5069080;28;20457;-48
2023/06/08 08:04:54;;;;;;;7.37;5.80;;;18.20;99.90;;;;;;5063028;28;20532;-52
2023/06/08 08:07:21;;;;;;;7.80;5.90;;;18.30;99.90;;;;;;5063861;28;21002;-50
2023/06/08 08:09:48;;;;;;;7.43;5.70;;;18.40;99.90;;;;;;5061898;28;20952;-50
2023/06/08 08:12:15;;;;;;;7.30;5.40;;;18.50;99.90;;;;;;5063557;28;20594;-48
2023/06/08 08:14:42;;;;;;;6.47;5.20;;;18.60;99.90;;;;;;5061385;28;21410;-47
2023/06/08 08:17:11;;;;;;;5.50;4.90;;;18.60;99.90;;;;;;5061613;28;20553;-49
2023/06/08 08:19:40;;;;;;;5.70;5.10;;;18.70;99.90;;;;;;5062853;28;20530;-49
2023/06/08 08:22:07;;;;;;;7.80;5.83;;;18.70;99.90;;;;;;5081008;28;20444;-50
2023/06/08 08:24:34;;;;;;;6.00;5.30;;;18.80;99.90;;;;;;5092881;28;20531;-47
2023/06/08 08:27:01;;;;;;;7.30;6.07;;;18.90;99.90;;;;;;5092891;28;20619;-50
2023/06/08 08:29:28;;;;;;;6.10;5.50;;;19.00;99.90;;;;;;5092807;28;20482;-47
2023/06/08 08:31:56;;;;;;;5.80;4.50;;;19.10;99.90;;;;;;5092246;28;20532;-47
2023/06/08 08:34:24;;;;;;;6.43;4.70;;;19.30;99.90;;;;;;5087108;28;20978;-48
2023/06/08 08:36:52;;;;;;;6.47;5.00;;;19.50;99.90;;;;;;5072518;28;20533;-50
2023/06/08 08:39:19;;;;;;;4.90;4.40;;;19.60;99.90;;;;;;5071822;28;20464;-48
2023/06/08 08:41:51;;;;;;;7.13;5.07;;;19.60;99.90;;;;;;5072413;28;20502;-51
2023/06/08 08:44:20;;;;;;;6.67;5.50;;;19.70;99.90;;;;;;5064141;28;20525;-48
2023/06/08 08:46:49;;;;;;;6.43;5.20;;;19.80;99.90;;;;;;5052048;28;20527;-48
2023/06/08 08:49:17;;;;;;;5.70;4.97;;;19.90;99.90;;;;;;5056821;28;20566;-50
2023/06/08 08:51:51;;;;;;;4.97;4.43;;;19.90;99.90;;;;;;5062059;28;20478;-50
2023/06/08 08:54:25;;;;;;;8.90;5.47;;;20.00;99.90;;;;;;5056294;28;20482;-48
2023/06/08 08:56:55;;;;;;;6.87;4.70;;;20.10;99.90;;;;;;5069904;28;20441;-50
2023/06/08 08:59:24;;;;;;;6.80;5.00;;;20.10;99.90;;;;;;5064603;28;21031;-48
2023/06/08 09:01:51;;;;;;;7.60;6.10;;;20.20;99.90;;;;;;5071173;28;20456;-52
2023/06/08 09:04:18;;;;;;;6.00;5.10;;;20.20;99.90;;;;;;5070453;28;20825;-48
2023/06/08 09:06:49;;;;;;;6.37;5.33;;;20.20;99.90;;;;;;5070573;28;20518;-53
2023/06/08 09:09:16;;;;;;;7.97;5.70;;;20.20;99.90;;;;;;5070495;28;20457;-48
2023/06/08 09:11:58;;;;;;;5.60;4.77;;;20.30;99.90;;;;;;5070471;28;20519;-49
2023/06/08 09:14:25;;;;;;;6.60;4.80;;;20.40;99.90;;;;;;5070532;28;20858;-48
2023/06/08 09:16:53;;;;;;;6.93;4.70;;;20.50;99.90;;;;;;5070861;28;20460;-49
2023/06/08 09:19:22;;;;;;;6.43;4.60;;;20.60;99.90;;;;;;5071570;28;21010;-49
2023/06/08 09:21:50;;;;;;;6.50;4.80;;;20.80;99.90;;;;;;5071538;28;20456;-48
2023/06/08 09:24:20;;;;;;;5.07;4.33;;;20.70;99.90;;;;;;5071175;28;21260;-49
2023/06/08 09:26:48;;;;;;;6.30;5.10;;;20.70;99.90;;;;;;5070310;28;20444;-48
2023/06/08 09:29:31;;;;;;;5.70;5.10;;;20.60;99.90;;;;;;5071561;28;20468;-48
2023/06/08 09:31:59;;;;;;;6.83;5.50;;;20.60;99.90;;;;;;5071646;28;20818;-49
2023/06/08 09:34:29;;;;;;;6.43;5.07;;;20.60;99.90;;;;;;5070939;28;20476;-49
2023/06/08 09:37:06;;;;;;;6.37;5.10;;;20.50;99.90;;;;;;5071414;28;20453;-48
2023/06/08 09:39:39;;;;;;;6.37;4.80;;;20.50;99.90;;;;;;5071657;28;20444;-48
2023/06/08 09:42:06;;;;;;;6.70;5.20;;;20.50;99.90;;;;;;5070108;28;20448;-50
2023/06/08 09:44:35;;;;;;;6.60;5.50;;;20.50;99.90;;;;;;5069593;28;20440;-48
2023/06/08 09:47:22;;;;;;;6.00;5.37;;;20.60;99.90;;;;;;5068920;28;20455;-51
2023/06/08 09:49:50;;;;;;;5.33;4.77;;;20.60;99.90;;;;;;5070409;28;20442;-48
2023/06/08 09:52:21;;;;;;;5.60;4.83;;;20.70;99.90;;;;;;5059895;28;20453;-48
2023/06/08 09:54:49;;;;;;;6.27;5.10;;;20.80;99.90;;;;;;5066862;28;20486;-49
2023/06/08 09:57:17;;;;;;;9.63;4.80;;;20.80;99.90;;;;;;5066283;28;20452;-48
2023/06/08 09:59:48;;;;;;;5.53;4.70;;;20.90;99.90;;;;;;5069971;28;20559;-48
2023/06/08 10:02:19;;;;;;;5.17;4.67;;;20.90;99.90;;;;;;5066775;28;20940;-48
2023/06/08 10:04:52;;;;;;;7.40;6.17;;;21.00;99.90;;;;;;5070084;28;20440;-48
2023/06/08 10:07:24;;;;;;;6.60;4.87;;;21.00;99.90;;;;;;5059068;28;20506;-48
2023/06/08 10:09:59;;;;;;;5.70;4.37;;;21.10;99.90;;;;;;5069495;28;21089;-48
2023/06/08 10:12:29;;;;;;;6.70;4.83;;;21.10;99.90;;;;;;5069552;28;20602;-50
2023/06/08 10:14:58;;;;;;;6.47;5.27;;;21.20;99.90;;;;;;5062668;28;20999;-47
2023/06/08 10:17:26;;;;;;;8.20;5.10;;;21.20;99.90;;;;;;5057658;28;20469;-48
2023/06/08 10:19:53;;;;;;;6.70;6.00;;;21.30;99.90;;;;;;5070583;28;20867;-47
2023/06/08 10:22:23;;;;;;;6.70;5.40;;;21.40;99.90;;;;;;5070914;28;20494;-48
2023/06/08 10:24:50;;;;;;;8.50;5.90;;;21.40;99.90;;;;;;5070076;28;20486;-48
2023/06/08 10:27:32;;;;;;;7.43;5.87;;;21.30;99.90;;;;;;5058197;28;20895;-52
2023/06/08 10:30:01;;;;;;;11.23;6.00;;;21.30;99.90;;;;;;5069618;28;20445;-49
2023/06/08 10:32:32;;;;;;;7.33;5.43;;;21.20;99.90;;;;;;5069170;28;20472;-49
2023/06/08 10:34:59;;;;;;;7.33;5.17;;;21.00;99.90;;;;;;5069771;28;20476;-47
2023/06/08 10:37:29;;;;;;;8.20;6.00;;;21.00;99.90;;;;;;5069980;28;20551;-48
2023/06/08 10:39:57;;;;;;;16.27;7.73;;;20.90;99.90;;;;;;5069483;28;20449;-48
2023/06/08 10:42:24;;;;;;;7.63;5.83;;;20.90;99.90;;;;;;5069662;28;20479;-48
2023/06/08 10:44:56;;;;;;;6.80;5.53;;;20.80;99.90;;;;;;5070346;28;20512;-53
2023/06/08 10:47:23;;;;;;;7.13;5.17;;;20.80;99.90;;;;;;5070076;28;20556;-47
2023/06/08 10:49:57;;;;;;;6.63;5.40;;;20.70;99.90;;;;;;5070428;28;20499;-50
2023/06/08 10:52:25;;;;;;;11.10;6.30;;;20.70;99.90;;;;;;5070645;28;20451;-47
2023/06/08 10:54:57;;;;;;;18.00;7.47;;;20.70;99.90;;;;;;5068193;28;20487;-49
2023/06/08 10:57:39;;;;;;;8.37;6.00;;;20.70;99.90;;;;;;5068327;28;20478;-50
2023/06/08 11:00:43;;;;;;;8.97;5.90;;;20.60;99.90;;;;;;5071072;28;20896;-48
2023/06/08 11:03:18;;;;;;;6.37;5.37;;;20.60;99.90;;;;;;5074543;28;20541;-48
2023/06/08 11:05:50;;;;;;;7.30;5.70;;;20.60;99.90;;;;;;5074641;28;20946;-50
2023/06/08 11:08:17;;;;;;;8.90;5.13;;;20.70;99.90;;;;;;5072423;28;20463;-52
2023/06/08 11:10:53;;;;;;;5.60;4.43;;;20.70;99.90;;;;;;5074587;28;20526;-47
2023/06/08 11:13:20;;;;;;;6.73;4.63;;;20.70;99.90;;;;;;5074255;28;20475;-48
2023/06/08 11:15:48;;;;;;;6.10;5.17;;;20.70;99.90;;;;;;5074236;28;20575;-51
2023/06/08 11:18:18;;;;;;;6.47;4.53;;;20.60;99.90;;;;;;5074032;28;20461;-47
2023/06/08 11:20:45;;;;;;;8.83;4.93;;;20.60;99.90;;;;;;5074062;28;20461;-48
2023/06/08 11:23:14;;;;;;;5.40;4.40;;;20.60;99.90;;;;;;5053662;28;20499;-48
2023/06/08 11:25:41;;;;;;;5.37;4.50;;;20.60;99.90;;;;;;5053251;28;20469;-48
2023/06/08 11:28:12;;;;;;;6.80;5.03;;;20.60;99.90;;;;;;5053384;28;20549;-48
2023/06/08 11:30:39;;;;;;;6.40;5.70;;;20.60;99.90;;;;;;5053918;28;20540;-48
2023/06/08 11:33:07;;;;;;;6.33;5.20;;;20.60;99.90;;;;;;5060472;28;20451;-50
2023/06/08 11:35:35;;;;;;;6.13;4.53;;;20.60;99.90;;;;;;5069742;28;20480;-48
2023/06/08 11:38:03;;;;;;;5.40;4.70;;;20.60;99.90;;;;;;5065266;28;20539;-53
2023/06/08 11:40:31;;;;;;;5.37;4.87;;;20.60;99.90;;;;;;5061087;28;20495;-55
2023/06/08 11:43:00;;;;;;;5.57;4.60;;;20.50;99.90;;;;;;5063202;28;20924;-53
2023/06/08 11:45:29;;;;;;;6.20;4.70;;;20.50;99.90;;;;;;5062938;28;20457;-50
2023/06/08 11:47:57;;;;;;;5.67;4.77;;;20.50;99.90;;;;;;5057949;28;20467;-47
2023/06/08 11:50:24;;;;;;;5.43;4.43;;;20.50;99.90;;;;;;5052410;28;20453;-48
2023/06/08 11:52:51;;;;;;;6.77;4.80;;;20.50;99.90;;;;;;5051355;28;20522;-48
2023/06/08 11:55:22;;;;;;;5.30;3.60;;;20.40;99.90;;;;;;5053857;28;20505;-47
2023/06/08 11:57:55;;;;;;;5.10;4.60;;;20.20;99.90;;;;;;5051151;28;20473;-50
2023/06/08 12:00:26;;;;;;;5.60;4.57;;;20.20;99.90;;;;;;5053390;28;20826;-48
2023/06/08 12:02:55;;;;;;;7.50;6.17;;;20.00;99.90;;;;;;5053254;28;20453;-51
2023/06/08 12:05:24;;;;;;;6.47;4.80;;;19.60;99.90;;;;;;5052938;28;20445;-49
2023/06/08 12:07:56;;;;;;;6.50;5.20;;;19.50;99.90;;;;;;5052580;28;20929;-53
2023/06/08 12:10:24;;;;;;;6.07;5.00;;;19.30;99.90;;;;;;5057206;28;20942;-47
2023/06/08 12:12:51;;;;;;;8.20;5.40;;;19.20;99.90;;;;;;5062877;28;20445;-47
2023/06/08 12:15:18;;;;;;;6.73;5.20;;;18.90;99.90;;;;;;5051937;28;20566;-51
2023/06/08 12:17:46;;;;;;;7.67;5.10;;;18.80;99.90;;;;;;5052205;28;21071;-47
2023/06/08 12:20:17;;;;;;;7.37;5.80;;;18.80;99.90;;;;;;5052649;28;20452;-47
2023/06/08 12:22:45;;;;;;;8.20;5.30;;;18.90;99.90;;;;;;5052635;28;20444;-48
2023/06/08 12:25:12;;;;;;;8.10;5.93;;;18.80;99.90;;;;;;5052176;28;20449;-47
2023/06/08 12:27:39;;;;;;;6.97;5.73;;;18.70;99.90;;;;;;5052392;28;20835;-47
2023/06/08 12:30:08;;;;;;;9.17;5.90;;;18.60;99.90;;;;;;5052516;28;20452;-48
2023/06/08 12:32:35;;;;;;;8.73;6.37;;;18.50;99.90;;;;;;5052355;28;20454;-47
2023/06/08 12:35:03;;;;;;;8.57;6.07;;;18.30;99.90;;;;;;5052010;28;21008;-52
2023/06/08 12:37:31;;;;;;;7.63;5.50;;;18.20;99.90;;;;;;5052039;28;20468;-48
2023/06/08 12:39:58;;;;;;;7.87;5.70;;;18.30;99.90;;;;;;5052640;28;20574;-47
2023/06/08 12:42:25;;;;;;;8.80;6.20;;;17.90;99.90;;;;;;5052371;28;20453;-51
2023/06/08 12:44:53;;;;;;;12.43;7.17;;;17.90;99.90;;;;;;5052046;28;20528;-48
2023/06/08 12:47:20;;;;;;;8.53;5.63;;;17.90;99.90;;;;;;5051743;28;20468;-50
2023/06/08 12:49:47;;;;;;;8.00;6.03;;;17.80;99.90;;;;;;5052426;28;20472;-49
2023/06/08 12:52:17;;;;;;;11.93;6.47;;;17.70;99.90;;;;;;5050331;28;20483;-47
2023/06/08 12:54:46;;;;;;;9.73;5.80;;;17.80;99.90;;;;;;5050035;28;20453;-47